Terminal Aerodrome Forecast
Issued by NWS

Home | Current Version | Previous Version | Text Only | Print | Product List | Glossary On
Versions: 1 2 3 4 5 6 7 8 9 10 11 12 13 14
000
FTUS44 KCRP 271120
TAFALI
TAF
KALI 271120Z 2712/2812 14008KT 6SM BR FEW008 SCT015 OVC025
      TEMPO 2712/2714 4SM BR BKN008 OVC015
     FM271400 15013KT P6SM SCT014 BKN020
     FM271900 14014KT P6SM SCT035
     FM280400 14007KT 6SM BR SCT008 BKN015
      TEMPO 2808/2812 4SM BR BKN008 OVC015=

USA.gov is the U.S. government's official web portal to all federal, state and local government web resources and services.